Lyman — WDD4170 — position and weather

sailwx.info

Track history (hours):
 
Tides and Currents Weather Stations Pressure Air Temp Water Temp Dewpoint Dewpoint Depression Visibility Wind Speed Wind Dir Waves Ship Positions

Lyman

Owner: G.T. 102, New Haven, CT. More information available from US FCC via Universal Licensing System and Coast Guard Vessel Documentation Center.

Last reported at 2018-Apr-26 01:03 UTC. Time now 2018-Apr-26 22:57 UTC.
Position N 41°11' W 072°43'.

; draft 4.9 m.

Type: Towing. MMSI: 367141180.

Date/timePositionNaut miles runAvg speedWind from/ knotsBaromVisibWave heightAir tempDewpointWater temp
2018-Apr-26 01:03N 41°11' W 072°43'110.3
2018-Apr-26 00:59N 41°11' W 072°42'510.4
2018-Apr-26 00:30N 41°10' W 072°35'510.6
2018-Apr-26 00:00N 41°10' W 072°28'611.4
2018-Apr-25 23:30N 41°12' W 072°21'611.7
2018-Apr-25 22:58N 41°14' W 072°13'7 1.9
2018-Apr-25 19:06N 41°12' W 072°22'1 8.3
2018-Apr-25 18:59N 41°12' W 072°23'4 8.6
2018-Apr-25 18:30N 41°11' W 072°28'5 9.4
2018-Apr-25 18:00N 41°09' W 072°34'5 9.6
2018-Apr-25 17:30N 41°08' W 072°41'62 8.7
2018-Apr-25 10:19N 40°45' W 073°57'3 9.6
2018-Apr-25 10:00N 40°43' W 073°59'5 9.5
2018-Apr-25 09:30N 40°39' W 074°03'5 9.6
2018-Apr-25 08:59N 40°34' W 074°02'51 8.5
2018-Apr-25 02:56N 39°43' W 074°02'4 8.8
2018-Apr-25 02:30N 39°40' W 074°04'5 8.8
2018-Apr-25 01:56N 39°35' W 074°06'180 8.5
2018-Apr-24 04:49N 36°56' W 075°55'3 8.2
2018-Apr-24 04:30N 36°57' W 075°58'4 8.0
2018-Apr-24 04:00N 36°58' W 076°03'15 8.0
2018-Apr-24 02:08N 36°57' W 076°22'  
2018-Apr-19 16:26N 36°53' W 076°20'3 6.8
2018-Apr-19 16:00N 36°50' W 076°18'0 0.0
2018-Apr-19 15:30N 36°50' W 076°18'0 0.2
2018-Apr-19 15:00N 36°50' W 076°18'1 1.5
2018-Apr-19 14:30N 36°50' W 076°18'0 1.0
2018-Apr-19 14:01N 36°49' W 076°17'0 0.2
2018-Apr-19 13:30N 36°49' W 076°17'0 0.5
2018-Apr-19 13:00N 36°49' W 076°17'2 4.4
2018-Apr-19 12:30N 36°51' W 076°18'5 9.1
2018-Apr-19 12:00N 36°56' W 076°20'0 0.0
2018-Apr-17 12:07N 36°56' W 076°20'4 8.0
2018-Apr-17 11:41N 36°52' W 076°20'1 8.0
2018-Apr-17 11:30N 36°51' W 076°19'2 4.8
2018-Apr-17 11:00N 36°49' W 076°18'0 0.0
2018-Apr-17 10:30N 36°49' W 076°18'0 0.0
2018-Apr-17 10:00N 36°49' W 076°18'1 2.1
2018-Apr-17 09:30N 36°50' W 076°18'2 3.6
2018-Apr-17 09:00N 36°52' W 076°19'2 4.0
2018-Apr-17 08:29N 36°54' W 076°20'2 4.2
2018-Apr-17 07:58N 36°56' W 076°20'2 3.8
2018-Apr-17 07:30N 36°57' W 076°20'1 3.0
2018-Apr-17 07:00N 36°57' W 076°22'  
Track history (hours):
 
Tides and Currents Weather Stations Pressure Air Temp Water Temp Dewpoint Dewpoint Depression Visibility Wind Speed Wind Dir Waves Ship Positions

Lyman

Owner: G.T. 102, New Haven, CT. More information available from US FCC via Universal Licensing System and Coast Guard Vessel Documentation Center.

Last reported at 2018-Apr-26 01:03 UTC. Time now 2018-Apr-26 22:57 UTC.
Position N 41°11' W 072°43'.

; draft 4.9 m.

Type: Towing. MMSI: 367141180.

Date/timePositionNaut miles runAvg speedWind from/ knotsBaromVisibWave heightAir tempDewpointWater temp
2018-Apr-26 01:03N 41°11' W 072°43'110.3
2018-Apr-26 00:59N 41°11' W 072°42'510.4
2018-Apr-26 00:30N 41°10' W 072°35'510.6
2018-Apr-26 00:00N 41°10' W 072°28'611.4
2018-Apr-25 23:30N 41°12' W 072°21'611.7
2018-Apr-25 22:58N 41°14' W 072°13'7 1.9
2018-Apr-25 19:06N 41°12' W 072°22'1 8.3
2018-Apr-25 18:59N 41°12' W 072°23'4 8.6
2018-Apr-25 18:30N 41°11' W 072°28'5 9.4
2018-Apr-25 18:00N 41°09' W 072°34'5 9.6
2018-Apr-25 17:30N 41°08' W 072°41'62 8.7
2018-Apr-25 10:19N 40°45' W 073°57'3 9.6
2018-Apr-25 10:00N 40°43' W 073°59'5 9.5
2018-Apr-25 09:30N 40°39' W 074°03'5 9.6
2018-Apr-25 08:59N 40°34' W 074°02'51 8.5
2018-Apr-25 02:56N 39°43' W 074°02'4 8.8
2018-Apr-25 02:30N 39°40' W 074°04'5 8.8
2018-Apr-25 01:56N 39°35' W 074°06'180 8.5
2018-Apr-24 04:49N 36°56' W 075°55'3 8.2
2018-Apr-24 04:30N 36°57' W 075°58'4 8.0
2018-Apr-24 04:00N 36°58' W 076°03'15 8.0
2018-Apr-24 02:08N 36°57' W 076°22'  
2018-Apr-19 16:26N 36°53' W 076°20'3 6.8
2018-Apr-19 16:00N 36°50' W 076°18'0 0.0
2018-Apr-19 15:30N 36°50' W 076°18'0 0.2
2018-Apr-19 15:00N 36°50' W 076°18'1 1.5
2018-Apr-19 14:30N 36°50' W 076°18'0 1.0
2018-Apr-19 14:01N 36°49' W 076°17'0 0.2
2018-Apr-19 13:30N 36°49' W 076°17'0 0.5
2018-Apr-19 13:00N 36°49' W 076°17'2 4.4
2018-Apr-19 12:30N 36°51' W 076°18'5 9.1
2018-Apr-19 12:00N 36°56' W 076°20'0 0.0
2018-Apr-17 12:07N 36°56' W 076°20'4 8.0
2018-Apr-17 11:41N 36°52' W 076°20'1 8.0
2018-Apr-17 11:30N 36°51' W 076°19'2 4.8
2018-Apr-17 11:00N 36°49' W 076°18'0 0.0
2018-Apr-17 10:30N 36°49' W 076°18'0 0.0
2018-Apr-17 10:00N 36°49' W 076°18'1 2.1
2018-Apr-17 09:30N 36°50' W 076°18'2 3.6
2018-Apr-17 09:00N 36°52' W 076°19'2 4.0
2018-Apr-17 08:29N 36°54' W 076°20'2 4.2
2018-Apr-17 07:58N 36°56' W 076°20'2 3.8
2018-Apr-17 07:30N 36°57' W 076°20'1 3.0
2018-Apr-17 07:00N 36°57' W 076°22'  

Dump ship's entire track history